Hauptseite
METAR-TAF:

METAR-TAF

Flughäfen :

Flughafen Hanoi

Hanoi, Vietnam

Breite: 21-01N, Länge: 105-48E, Höhe: 6 m

Beobachtung

Neuester Wetterbericht von vor 20 Minuten, um 18:30 UTC
Wind 5 kt aus Ost/Südost
Temperatur 25°C
Luftfeuchtigkeit 94%
Luftdruck 1013 hPa
Sichtweite: 9000 m
Leicht bewölkt in der Höhe von 3000 ft, Towering cumulus.

METAR: VVNB 161830Z 11005KT 9000 FEW030TCU 25/24 Q1013 TEMPO 3500 SHRA

Zeit: 01:50 (18:50 UTC)

Prognose

Neuester Wetterbericht von vor 1 Stunde und 50 Minuten, um 17:00 UTC
Gültige Prognose vom 16 um 18 UTC bis 17 um 18 UTC
Wind 6 kt aus Ost
Sichtweite: 6000 m
Übergehend zu
vom 16 um 20 UTC bis 16 um 22 UTC
Sichtweite: 4000 m
feuchter Dunst
Übergehend zu
vom 17 um 00 UTC bis 17 um 01 UTC
Sichtweite: 6000 m
Aufgelockert bewölkt in der Höhe von 2500 ft

TAF: VVNB 161700Z 1618/1718 10006KT 6000 NSC BECMG 1620/1622 4000 BR BECMG 1700/1701 6000 NSW SCT025

Wetterbeobachtungen und Prognosen von mehr als 4000 Flughäfen (METAR und TAF Bericht).

Die verfügbaren Stationen werden durch gelbe und rote Markierungen auf der Karte dargestellt.

Führen Sie die Maus auf sie, um den Namen der Station zu sehen.

Darauf klicken, um die Beobachtung von Wetterbeobachtungen und Prognosen zu sehen.

Um die Karte zu ändern : klicken Sie auf den grünen Tasten mit einem schwarzen Kreuz Zum Vergrößern, auf den grünen Button mit einem Gedankenstrich zu verkleinern, oder auf die grünen Pfeile für benachbarte Karten.


METAR-TAF: